Time;durP1;ratioP1;P1;durP2;ratioP2;P2;SDS_P1;SDS_P2;PMS_P1;PMS_P2;Temp;Humidity;BMP_temperature;BMP_pressure;BME280_temperature;BME280_humidity;BME280_pressure;Samples;Min_cycle;Max_cycle;Signal;HPM_P1;HPM_P2
2022/04/28 00:00:50;;;;;;;5.70;4.10;;;13.50;57.20;;;;;;5064208;28;20033;-61
2022/04/28 00:03:16;;;;;;;4.00;3.60;;;13.50;57.20;;;;;;5072774;28;20031;-61
2022/04/28 00:05:42;;;;;;;4.25;3.47;;;13.50;57.30;;;;;;5072524;28;20029;-61
2022/04/28 00:08:08;;;;;;;3.88;3.30;;;13.40;57.30;;;;;;5072702;28;20050;-61
2022/04/28 00:10:35;;;;;;;5.60;3.95;;;13.40;57.20;;;;;;5073461;28;20032;-61
2022/04/28 00:13:01;;;;;;;4.53;3.58;;;13.40;57.10;;;;;;5072354;28;20031;-61
2022/04/28 00:15:30;;;;;;;5.13;3.97;;;13.40;57.00;;;;;;5073149;28;20043;-61
2022/04/28 00:17:57;;;;;;;4.97;3.75;;;13.40;57.10;;;;;;5070577;28;20074;-61
2022/04/28 00:20:22;;;;;;;5.22;3.80;;;13.40;57.10;;;;;;5069534;28;20047;-61
2022/04/28 00:22:48;;;;;;;5.38;3.95;;;13.30;57.10;;;;;;5070160;28;20041;-61
2022/04/28 00:25:15;;;;;;;4.18;3.78;;;13.30;57.20;;;;;;5071635;28;20091;-61
2022/04/28 00:27:40;;;;;;;5.10;3.85;;;13.30;57.40;;;;;;5071890;28;20396;-61
2022/04/28 00:30:07;;;;;;;5.30;3.90;;;13.30;58.00;;;;;;5072104;28;20027;-61
2022/04/28 00:32:33;;;;;;;5.43;4.25;;;13.20;57.20;;;;;;5072974;28;20031;-61
2022/04/28 00:34:59;;;;;;;5.63;4.13;;;13.30;57.30;;;;;;5071057;28;20024;-61
2022/04/28 00:37:25;;;;;;;5.97;4.40;;;13.30;57.10;;;;;;5072383;28;20120;-60
2022/04/28 00:39:51;;;;;;;5.07;4.13;;;13.20;57.10;;;;;;5071686;28;20107;-60
2022/04/28 00:42:18;;;;;;;5.57;4.43;;;13.20;57.20;;;;;;5071807;28;20063;-61
2022/04/28 00:44:46;;;;;;;5.82;3.70;;;13.20;57.10;;;;;;5070789;28;20066;-61
2022/04/28 00:47:12;;;;;;;7.00;4.18;;;13.20;57.10;;;;;;5072611;28;20032;-61
2022/04/28 00:52:24;;;;;;;7.18;4.15;;;13.20;57.30;;;;;;5064279;28;20384;-61
2022/04/28 00:54:52;;;;;;;4.97;3.90;;;13.20;57.50;;;;;;5072206;28;20028;-61
2022/04/28 00:57:18;;;;;;;4.60;3.78;;;13.20;57.50;;;;;;5071212;28;20032;-60
2022/04/28 00:59:45;;;;;;;6.85;4.20;;;13.20;57.30;;;;;;5070608;28;20021;-61
2022/04/28 01:02:11;;;;;;;6.72;4.13;;;13.10;57.20;;;;;;5070496;28;20025;-61
2022/04/28 01:04:38;;;;;;;5.90;4.15;;;13.20;57.20;;;;;;5070578;28;20028;-61
2022/04/28 01:07:07;;;;;;;5.68;3.78;;;13.10;57.30;;;;;;5071217;28;20429;-60
2022/04/28 01:09:36;;;;;;;5.35;4.00;;;13.10;57.20;;;;;;5069504;28;20077;-61
2022/04/28 01:12:07;;;;;;;5.47;4.05;;;13.10;57.30;;;;;;5071619;28;20036;-61
2022/04/28 01:14:33;;;;;;;5.75;4.13;;;13.10;57.40;;;;;;5072224;28;20021;-61
2022/04/28 01:17:02;;;;;;;5.78;4.47;;;13.10;57.50;;;;;;5069018;28;20027;-61
2022/04/28 01:19:28;;;;;;;5.03;4.13;;;13.10;57.80;;;;;;5062116;28;20107;-60
2022/04/28 01:21:55;;;;;;;6.50;4.72;;;13.10;58.40;;;;;;5062871;28;20120;-61
2022/04/28 01:24:21;;;;;;;5.30;4.35;;;13.00;58.60;;;;;;5072015;28;20017;-61
2022/04/28 01:26:48;;;;;;;5.70;4.50;;;13.00;58.50;;;;;;5070728;28;20024;-60
2022/04/28 01:29:13;;;;;;;6.28;4.47;;;13.00;58.40;;;;;;5069848;28;20039;-61
2022/04/28 01:31:39;;;;;;;5.70;4.65;;;12.90;58.60;;;;;;5065815;28;20111;-60
2022/04/28 01:34:05;;;;;;;5.97;4.60;;;12.90;58.80;;;;;;5065711;28;20480;-61
2022/04/28 01:36:31;;;;;;;6.63;5.07;;;12.90;58.80;;;;;;5069037;28;20045;-61
2022/04/28 01:38:57;;;;;;;5.90;4.75;;;12.90;58.60;;;;;;5071719;28;20051;-61
2022/04/28 01:41:23;;;;;;;7.28;5.20;;;12.80;58.60;;;;;;5071661;28;20467;-61
2022/04/28 01:43:49;;;;;;;7.80;5.18;;;12.80;58.70;;;;;;5070348;28;20025;-61
2022/04/28 01:46:14;;;;;;;6.80;5.68;;;12.70;58.90;;;;;;5067838;28;20070;-61
2022/04/28 01:48:40;;;;;;;6.88;5.95;;;12.70;59.10;;;;;;5066710;28;20381;-61
2022/04/28 01:56:34;;;;;;;7.57;5.93;;;12.60;60.30;;;;;;5062937;28;20401;-61
2022/04/28 01:59:00;;;;;;;6.88;5.70;;;12.60;60.80;;;;;;5068972;28;20185;-61
2022/04/28 02:01:26;;;;;;;6.75;5.50;;;12.50;61.10;;;;;;5064692;28;20032;-60
2022/04/28 02:03:51;;;;;;;8.35;5.80;;;12.50;61.40;;;;;;5070443;28;20017;-60
2022/04/28 02:06:17;;;;;;;7.15;5.72;;;12.40;61.40;;;;;;5071129;28;20058;-61
2022/04/28 02:08:44;;;;;;;8.20;5.97;;;12.40;61.50;;;;;;5068179;28;20029;-60
2022/04/28 02:11:09;;;;;;;7.57;5.05;;;12.40;61.50;;;;;;5060386;28;20055;-60
2022/04/28 02:13:35;;;;;;;5.80;5.00;;;12.30;61.60;;;;;;5058144;28;20439;-61
2022/04/28 02:16:01;;;;;;;6.85;5.00;;;12.30;61.50;;;;;;5062632;28;20301;-61
2022/04/28 02:18:27;;;;;;;7.22;5.20;;;12.20;61.50;;;;;;5070850;28;20024;-60
2022/04/28 02:20:52;;;;;;;4.90;4.35;;;12.20;61.60;;;;;;5069954;28;20048;-61
2022/04/28 02:23:18;;;;;;;7.00;5.40;;;12.20;61.70;;;;;;5067270;28;20481;-61
2022/04/28 02:25:44;;;;;;;7.10;5.38;;;12.10;61.80;;;;;;5067974;28;20033;-60
2022/04/28 02:28:09;;;;;;;6.10;4.95;;;12.10;61.70;;;;;;5070758;28;20036;-60
2022/04/28 02:30:35;;;;;;;6.88;5.53;;;12.10;61.90;;;;;;5070956;28;20028;-61
2022/04/28 02:33:09;;;;;;;6.00;5.22;;;12.10;62.00;;;;;;5055939;28;20029;-61
2022/04/28 02:35:36;;;;;;;7.30;5.32;;;12.10;62.10;;;;;;5064237;28;20174;-60
2022/04/28 02:38:02;;;;;;;7.40;5.30;;;12.10;62.20;;;;;;5068815;28;20040;-61
2022/04/28 02:40:27;;;;;;;5.82;4.72;;;12.10;62.30;;;;;;5069282;28;20074;-60
2022/04/28 02:42:53;;;;;;;6.78;4.80;;;12.10;62.30;;;;;;5067355;28;20021;-61
2022/04/28 02:45:19;;;;;;;5.93;4.85;;;12.10;62.30;;;;;;5065283;28;20045;-61
2022/04/28 02:47:45;;;;;;;5.70;4.70;;;12.10;62.90;;;;;;5064614;28;20147;-60
2022/04/28 02:50:11;;;;;;;5.90;4.03;;;12.10;62.10;;;;;;5067844;28;20106;-59
2022/04/28 02:52:40;;;;;;;7.43;4.75;;;12.20;62.00;;;;;;5063452;28;20031;-61
2022/04/28 02:55:09;;;;;;;5.80;4.85;;;12.20;62.00;;;;;;5062487;28;20016;-60
2022/04/28 02:57:36;;;;;;;6.82;5.30;;;12.30;62.70;;;;;;5060897;28;20032;-60
2022/04/28 03:00:04;;;;;;;6.47;5.53;;;12.30;62.10;;;;;;5065617;28;20032;-61
2022/04/28 03:02:30;;;;;;;7.07;5.00;;;12.30;62.20;;;;;;5069128;28;20113;-61
2022/04/28 03:04:56;;;;;;;6.03;4.78;;;12.40;62.30;;;;;;5064266;28;20016;-61
2022/04/28 03:12:51;;;;;;;6.53;4.90;;;12.50;62.50;;;;;;5067832;28;20039;-60
2022/04/28 03:15:17;;;;;;;5.57;4.63;;;12.50;62.60;;;;;;5063322;28;20033;-61
2022/04/28 03:17:43;;;;;;;5.70;4.65;;;12.60;62.90;;;;;;5069310;28;20032;-61
2022/04/28 03:20:09;;;;;;;6.05;4.75;;;12.60;63.50;;;;;;5065919;28;20024;-61
2022/04/28 03:22:36;;;;;;;6.78;4.90;;;12.70;63.40;;;;;;5072878;28;20419;-61
2022/04/28 03:25:02;;;;;;;5.60;4.90;;;12.70;63.60;;;;;;5073042;28;20012;-61
2022/04/28 03:27:30;;;;;;;5.78;4.50;;;12.80;63.80;;;;;;5071011;28;20415;-61
2022/04/28 03:29:56;;;;;;;5.53;4.72;;;12.90;63.90;;;;;;5055818;28;20028;-61
2022/04/28 03:32:22;;;;;;;6.05;4.88;;;13.10;64.10;;;;;;5069985;28;20094;-60
2022/04/28 03:34:47;;;;;;;7.30;4.75;;;13.20;63.90;;;;;;5070725;28;20025;-60
2022/04/28 03:37:13;;;;;;;5.45;4.70;;;13.20;64.20;;;;;;5064142;28;20040;-61
2022/04/28 03:39:39;;;;;;;6.28;4.70;;;13.40;64.20;;;;;;5072028;28;20449;-61
2022/04/28 03:42:06;;;;;;;6.50;4.95;;;13.50;64.10;;;;;;5073632;28;20020;-61
2022/04/28 03:44:32;;;;;;;6.20;4.72;;;13.60;64.10;;;;;;5073631;28;20086;-61
2022/04/28 03:46:57;;;;;;;6.18;4.97;;;13.70;64.00;;;;;;5064828;28;20032;-61
2022/04/28 03:49:23;;;;;;;5.38;4.35;;;13.90;64.80;;;;;;5071988;28;20028;-61
2022/04/28 03:51:49;;;;;;;5.90;4.85;;;14.00;64.10;;;;;;5073420;28;20056;-60
2022/04/28 03:54:14;;;;;;;7.78;5.05;;;14.20;64.10;;;;;;5073484;28;20020;-60
2022/04/28 03:56:40;;;;;;;5.45;4.55;;;14.40;64.10;;;;;;5064517;28;20460;-61
2022/04/28 03:59:06;;;;;;;6.53;4.80;;;14.50;64.00;;;;;;5067144;28;20438;-60
2022/04/28 04:01:31;;;;;;;7.25;5.47;;;14.70;64.00;;;;;;5069332;28;20400;-60
2022/04/28 04:03:57;;;;;;;7.18;5.15;;;14.90;63.90;;;;;;5067893;28;20016;-60
2022/04/28 04:06:23;;;;;;;6.70;5.25;;;15.10;63.70;;;;;;5067026;28;20055;-61
2022/04/28 04:08:49;;;;;;;6.05;5.03;;;15.30;63.40;;;;;;5066222;28;20033;-60
2022/04/28 04:11:15;;;;;;;6.03;5.00;;;15.60;63.20;;;;;;5067376;28;20159;-60
2022/04/28 04:13:41;;;;;;;6.45;5.15;;;15.90;62.60;;;;;;5073085;28;20108;-60
2022/04/28 04:16:07;;;;;;;7.00;5.05;;;16.20;62.00;;;;;;5066077;28;20033;-59
2022/04/28 04:18:32;;;;;;;6.93;5.53;;;16.50;61.20;;;;;;5068186;28;20024;-58
2022/04/28 04:20:58;;;;;;;7.00;5.65;;;16.70;60.50;;;;;;5070851;28;20021;-59
2022/04/28 04:23:24;;;;;;;7.28;4.88;;;16.90;61.00;;;;;;5067885;28;20116;-59
2022/04/28 04:25:50;;;;;;;6.47;5.30;;;17.20;60.20;;;;;;5069966;28;20131;-59
2022/04/28 04:28:15;;;;;;;7.57;5.95;;;17.40;59.90;;;;;;5068826;28;20362;-59
2022/04/28 04:33:25;;;;;;;6.70;5.78;;;17.60;59.00;;;;;;5070245;28;20032;-59
2022/04/28 04:35:51;;;;;;;6.75;5.63;;;17.50;58.90;;;;;;5070459;28;20484;-59
2022/04/28 04:38:17;;;;;;;9.27;6.20;;;17.30;58.90;;;;;;5068691;28;20484;-60
2022/04/28 04:40:42;;;;;;;7.43;5.55;;;17.20;59.50;;;;;;5070415;28;20100;-60
2022/04/28 04:43:13;;;;;;;6.75;5.45;;;17.40;60.30;;;;;;5070717;28;20078;-60
2022/04/28 04:45:42;;;;;;;7.50;5.45;;;17.80;60.00;;;;;;5065233;28;20029;-60
2022/04/28 04:48:09;;;;;;;6.72;5.20;;;18.20;59.50;;;;;;5071044;28;20036;-60
2022/04/28 04:50:35;;;;;;;6.93;5.60;;;18.60;59.10;;;;;;5071486;28;20028;-60
2022/04/28 04:53:01;;;;;;;5.68;5.07;;;19.10;59.30;;;;;;5071095;28;20116;-60
2022/04/28 04:55:27;;;;;;;7.13;5.60;;;19.50;58.00;;;;;;5068882;28;20099;-60
2022/04/28 04:57:52;;;;;;;6.82;5.32;;;19.90;57.50;;;;;;5069118;28;20103;-60
2022/04/28 05:00:18;;;;;;;6.53;5.75;;;20.40;56.90;;;;;;5060777;28;20365;-60
2022/04/28 05:02:44;;;;;;;6.97;4.97;;;20.70;56.30;;;;;;5067388;28;20519;-60
2022/04/28 05:05:10;;;;;;;6.32;5.05;;;21.10;55.80;;;;;;5070652;28;20546;-60
2022/04/28 05:07:35;;;;;;;7.20;5.07;;;21.40;55.20;;;;;;5071938;28;20390;-60
2022/04/28 05:10:01;;;;;;;5.70;4.93;;;21.80;54.50;;;;;;5071156;28;20491;-60
2022/04/28 05:12:27;;;;;;;6.55;4.90;;;21.90;54.10;;;;;;5069239;28;20033;-59
2022/04/28 05:14:52;;;;;;;5.95;4.80;;;22.00;53.70;;;;;;5066589;28;20039;-60
2022/04/28 05:17:18;;;;;;;5.70;4.85;;;22.00;53.20;;;;;;5069124;28;20067;-59
2022/04/28 05:19:44;;;;;;;6.68;5.15;;;21.90;52.80;;;;;;5068825;28;20392;-60
2022/04/28 05:22:09;;;;;;;6.35;4.75;;;21.70;52.90;;;;;;5071814;28;20460;-60
2022/04/28 05:24:35;;;;;;;5.90;5.15;;;21.60;53.00;;;;;;5068914;28;20624;-60
2022/04/28 05:27:01;;;;;;;6.53;4.97;;;21.50;52.70;;;;;;5068914;28;20099;-60
2022/04/28 05:29:26;;;;;;;7.07;5.05;;;21.30;52.50;;;;;;5067487;28;20028;-60
2022/04/28 05:31:52;;;;;;;6.03;4.70;;;21.00;52.40;;;;;;5067978;28;20048;-60
2022/04/28 05:34:17;;;;;;;6.97;5.43;;;20.70;52.50;;;;;;5070840;28;20361;-60
2022/04/28 05:36:44;;;;;;;5.82;4.70;;;20.30;52.70;;;;;;5068075;28;20036;-60
2022/04/28 05:39:10;;;;;;;5.70;4.85;;;19.90;53.40;;;;;;5070087;28;20476;-60
2022/04/28 05:41:36;;;;;;;6.18;4.97;;;19.60;53.70;;;;;;5068683;28;20028;-60
2022/04/28 05:46:46;;;;;;;5.72;4.68;;;19.10;54.70;;;;;;5055524;28;20055;-60
2022/04/28 05:49:12;;;;;;;6.75;4.72;;;19.00;54.80;;;;;;5056592;28;20041;-60
2022/04/28 05:51:40;;;;;;;5.75;4.20;;;18.90;54.80;;;;;;5066426;28;20030;-60
2022/04/28 05:54:06;;;;;;;5.72;4.55;;;18.70;54.60;;;;;;5060482;28;20496;-60
2022/04/28 05:56:31;;;;;;;6.57;4.88;;;18.60;54.70;;;;;;5054686;28;20033;-60
2022/04/28 05:58:57;;;;;;;5.50;4.38;;;18.50;54.90;;;;;;5047413;28;24091;-60
2022/04/28 06:01:23;;;;;;;5.22;4.50;;;18.40;55.00;;;;;;5046442;28;20657;-60
2022/04/28 06:03:48;;;;;;;5.90;4.82;;;18.30;55.00;;;;;;5052521;28;21316;-60
2022/04/28 06:06:14;;;;;;;5.85;4.30;;;18.20;55.20;;;;;;5056819;28;20036;-60
2022/04/28 06:08:40;;;;;;;6.00;4.30;;;18.10;55.20;;;;;;5064561;28;20036;-60
2022/04/28 06:11:05;;;;;;;5.30;4.47;;;18.10;55.20;;;;;;5054600;28;20706;-61
2022/04/28 06:13:31;;;;;;;5.25;4.57;;;18.00;55.10;;;;;;5055297;28;20029;-60
2022/04/28 06:15:58;;;;;;;5.13;3.97;;;18.00;55.10;;;;;;5049853;28;20024;-60
2022/04/28 06:18:24;;;;;;;5.65;4.35;;;18.00;55.00;;;;;;5055681;28;20032;-60
2022/04/28 06:20:50;;;;;;;7.78;4.97;;;18.00;55.10;;;;;;5045129;28;20025;-60
2022/04/28 06:23:16;;;;;;;5.97;4.50;;;17.90;55.50;;;;;;5055881;28;20084;-60
2022/04/28 06:25:41;;;;;;;5.25;4.35;;;17.90;55.70;;;;;;5048355;28;20079;-61
2022/04/28 06:28:09;;;;;;;5.22;4.22;;;17.90;55.90;;;;;;5051205;28;20768;-60
2022/04/28 06:30:35;;;;;;;5.60;4.38;;;17.80;55.90;;;;;;5051040;28;20032;-60
2022/04/28 06:33:01;;;;;;;5.18;4.40;;;17.80;55.80;;;;;;5045994;28;20052;-60
2022/04/28 06:35:27;;;;;;;5.32;4.40;;;17.80;55.70;;;;;;5048932;28;20060;-61
2022/04/28 06:37:53;;;;;;;5.20;4.55;;;17.80;55.70;;;;;;5047308;28;20679;-60
2022/04/28 06:40:19;;;;;;;5.38;4.15;;;17.80;55.70;;;;;;5037191;28;20035;-60
2022/04/28 06:42:49;;;;;;;5.43;4.32;;;17.80;55.40;;;;;;5047913;28;20052;-60
2022/04/28 06:45:16;;;;;;;4.67;4.07;;;17.90;55.20;;;;;;5056382;28;20144;-60
2022/04/28 06:47:42;;;;;;;4.47;3.78;;;17.90;55.00;;;;;;5034787;28;20028;-60
2022/04/28 06:50:08;;;;;;;6.90;3.70;;;17.90;55.00;;;;;;5054580;28;20423;-60
2022/04/28 06:52:40;;;;;;;5.50;3.60;;;18.00;55.10;;;;;;5049203;28;20035;-60
2022/04/28 06:55:08;;;;;;;5.35;3.78;;;18.00;55.50;;;;;;5054155;28;20075;-61
2022/04/28 06:57:34;;;;;;;4.45;3.90;;;17.90;55.10;;;;;;5046491;28;20466;-60
2022/04/28 07:00:00;;;;;;;5.13;4.10;;;18.00;55.40;;;;;;5049326;28;20029;-60
2022/04/28 07:02:26;;;;;;;6.70;4.10;;;18.00;55.40;;;;;;5047503;28;20842;-60
2022/04/28 07:04:52;;;;;;;5.35;4.00;;;18.00;55.50;;;;;;5045868;28;20056;-62
2022/04/28 07:07:18;;;;;;;5.68;4.25;;;18.00;55.80;;;;;;5047433;28;20086;-61
2022/04/28 07:09:44;;;;;;;5.50;4.32;;;18.00;55.80;;;;;;5055961;28;20721;-60
2022/04/28 07:12:14;;;;;;;6.55;3.92;;;18.10;55.70;;;;;;5054619;28;20060;-61
2022/04/28 07:14:40;;;;;;;5.50;4.00;;;18.10;55.80;;;;;;5035855;28;20067;-61
2022/04/28 07:17:06;;;;;;;6.03;4.32;;;18.10;55.80;;;;;;5054202;28;20044;-62
2022/04/28 07:19:32;;;;;;;5.07;4.20;;;18.00;55.60;;;;;;5054565;28;20025;-61
2022/04/28 07:22:02;;;;;;;5.60;3.97;;;17.90;55.70;;;;;;5038671;28;20072;-61
2022/04/28 07:24:31;;;;;;;5.57;4.00;;;17.90;55.80;;;;;;5046201;28;20119;-60
2022/04/28 07:26:57;;;;;;;5.63;4.10;;;17.80;56.00;;;;;;5047479;28;20063;-61
2022/04/28 07:29:24;;;;;;;6.80;4.35;;;17.80;56.20;;;;;;5050534;28;20557;-61
2022/04/28 07:31:50;;;;;;;5.85;4.30;;;17.70;56.30;;;;;;5027079;28;20036;-62
2022/04/28 07:34:16;;;;;;;5.13;4.30;;;17.60;56.30;;;;;;5046703;28;20037;-61
2022/04/28 07:36:42;;;;;;;6.72;3.72;;;17.50;56.20;;;;;;5048328;28;20024;-62
2022/04/28 07:39:07;;;;;;;5.03;4.00;;;17.40;56.30;;;;;;5046577;28;20039;-60
2022/04/28 07:41:33;;;;;;;4.72;3.90;;;17.40;57.10;;;;;;5044605;28;20064;-61
2022/04/28 07:44:01;;;;;;;5.35;3.78;;;17.30;56.40;;;;;;5029830;28;20109;-61
2022/04/28 07:46:27;;;;;;;4.13;3.33;;;17.20;56.60;;;;;;5032824;28;20036;-60
2022/04/28 07:48:53;;;;;;;4.05;3.33;;;17.20;56.60;;;;;;5050561;28;20036;-61
2022/04/28 07:51:19;;;;;;;4.80;3.80;;;17.30;56.70;;;;;;5043509;28;20925;-60
2022/04/28 07:53:45;;;;;;;4.38;3.42;;;17.30;56.90;;;;;;5045224;28;20058;-59
2022/04/28 07:56:13;;;;;;;4.18;3.53;;;17.30;56.90;;;;;;5044951;28;20507;-60
2022/04/28 07:58:44;;;;;;;4.88;3.58;;;17.30;56.90;;;;;;5031481;28;20130;-61
2022/04/28 08:01:11;;;;;;;;;;;17.40;57.00;;;;;;5030006;28;20091;-61
2022/04/28 08:03:37;;;;;;;5.22;3.38;;;17.40;57.00;;;;;;5038674;28;20013;-60
2022/04/28 08:06:03;;;;;;;4.15;3.40;;;17.50;57.00;;;;;;5040157;28;20039;-60
2022/04/28 08:08:29;;;;;;;4.90;3.55;;;17.60;57.00;;;;;;5041825;28;20037;-60
2022/04/28 08:10:56;;;;;;;4.20;3.70;;;17.60;56.80;;;;;;5032808;28;20033;-60
2022/04/28 08:13:22;;;;;;;5.05;3.30;;;17.60;56.70;;;;;;5026376;28;20076;-60
2022/04/28 08:15:47;;;;;;;5.43;3.80;;;17.70;57.20;;;;;;5040378;28;20516;-60
2022/04/28 08:18:21;;;;;;;4.47;3.25;;;17.70;56.70;;;;;;5044978;28;20047;-60
2022/04/28 08:20:47;;;;;;;4.63;3.50;;;17.80;56.80;;;;;;5016535;28;20046;-62
2022/04/28 08:23:17;;;;;;;3.72;3.30;;;17.70;56.70;;;;;;5042372;28;20043;-60
2022/04/28 08:25:43;;;;;;;4.93;3.43;;;17.70;56.80;;;;;;5037109;28;20128;-61
2022/04/28 08:28:09;;;;;;;4.45;3.40;;;17.70;57.10;;;;;;5042733;28;20081;-61
2022/04/28 08:30:34;;;;;;;4.00;3.20;;;17.70;57.00;;;;;;5024628;28;21150;-61
2022/04/28 08:33:01;;;;;;;4.93;3.53;;;17.70;57.10;;;;;;5033195;28;20062;-61
2022/04/28 08:35:29;;;;;;;3.50;3.20;;;17.70;57.20;;;;;;5017979;28;20071;-59
2022/04/28 08:37:54;;;;;;;5.47;3.90;;;17.60;57.00;;;;;;5048746;28;20060;-61
2022/04/28 08:40:21;;;;;;;3.83;3.17;;;17.60;57.10;;;;;;5047864;28;20044;-62
2022/04/28 08:42:49;;;;;;;6.07;3.42;;;17.60;57.30;;;;;;5042104;28;20571;-62
2022/04/28 08:45:21;;;;;;;4.95;3.40;;;17.60;57.90;;;;;;5043331;28;20028;-61
2022/04/28 08:47:49;;;;;;;3.95;3.38;;;17.60;57.30;;;;;;5045170;28;20044;-61
2022/04/28 08:50:15;;;;;;;4.00;3.60;;;17.60;57.30;;;;;;5036471;28;20081;-62
2022/04/28 08:52:41;;;;;;;4.63;3.60;;;17.60;57.50;;;;;;5018582;28;20028;-61
2022/04/28 08:55:08;;;;;;;3.92;3.33;;;17.60;57.60;;;;;;5032952;28;21726;-62
2022/04/28 08:57:39;;;;;;;4.57;3.30;;;17.50;57.60;;;;;;5042937;28;20033;-62
2022/04/28 09:00:06;;;;;;;3.33;2.90;;;17.50;57.10;;;;;;5044885;28;20086;-62
2022/04/28 09:02:32;;;;;;;3.50;2.97;;;17.60;56.80;;;;;;5043792;28;20173;-62
2022/04/28 09:05:10;;;;;;;5.05;4.00;;;17.50;56.50;;;;;;5019574;28;20704;-61
2022/04/28 09:07:42;;;;;;;5.95;4.43;;;17.50;56.00;;;;;;5028026;28;20119;-60
2022/04/28 09:10:29;;;;;;;5.88;3.97;;;17.50;56.00;;;;;;5039007;28;20041;-61
2022/04/28 09:15:54;;;;;;;6.60;5.20;;;17.50;55.90;;;;;;5038108;28;20039;-61
2022/04/28 09:18:21;;;;;;;;;;;17.50;55.70;;;;;;5040126;28;20033;-61
2022/04/28 09:20:48;;;;;;;6.13;5.53;;;17.50;55.80;;;;;;5034147;28;20003;-59
2022/04/28 09:23:15;;;;;;;8.20;6.85;;;17.50;55.70;;;;;;5036913;28;20072;-60
2022/04/28 09:25:43;;;;;;;7.13;5.55;;;17.50;55.60;;;;;;5017082;28;20046;-60
2022/04/28 09:28:10;;;;;;;10.82;7.55;;;17.60;55.40;;;;;;5036600;28;20866;-60
2022/04/28 09:30:49;;;;;;;12.75;8.35;;;17.60;54.90;;;;;;5019676;28;20024;-61
2022/04/28 09:33:17;;;;;;;9.70;7.03;;;17.60;54.60;;;;;;5039486;28;20024;-60
2022/04/28 09:35:51;;;;;;;8.70;6.30;;;17.70;54.40;;;;;;5037758;28;20608;-61
2022/04/28 09:38:19;;;;;;;7.63;5.38;;;17.80;54.10;;;;;;5036444;28;23960;-61
2022/04/28 09:43:33;;;;;;;4.50;3.85;;;17.90;53.00;;;;;;5039445;28;20097;-61
2022/04/28 09:46:01;;;;;;;4.93;3.28;;;18.00;52.50;;;;;;5038129;28;20547;-60
2022/04/28 09:48:32;;;;;;;5.13;4.00;;;18.00;51.90;;;;;;5026449;28;20041;-61
2022/04/28 09:51:09;;;;;;;8.02;5.68;;;18.10;51.50;;;;;;5037021;28;20485;-62
2022/04/28 09:53:37;;;;;;;6.68;4.38;;;18.20;51.90;;;;;;5044246;28;20024;-62
2022/04/28 09:56:07;;;;;;;6.95;5.15;;;18.20;51.20;;;;;;5034522;28;20317;-59
2022/04/28 09:58:33;;;;;;;7.00;4.72;;;18.30;51.30;;;;;;5033525;28;20488;-60
2022/04/28 10:01:02;;;;;;;6.40;4.53;;;18.30;51.20;;;;;;5027901;28;20503;-61
2022/04/28 10:03:30;;;;;;;5.68;3.75;;;18.40;50.90;;;;;;5019613;28;20029;-62
2022/04/28 10:05:59;;;;;;;9.20;4.15;;;18.40;50.80;;;;;;5026376;28;20059;-62
2022/04/28 10:08:25;;;;;;;5.13;4.07;;;18.40;50.60;;;;;;5036382;28;20036;-61
2022/04/28 10:10:56;;;;;;;4.93;3.78;;;18.40;50.70;;;;;;5022532;28;20723;-60
2022/04/28 10:13:22;;;;;;;5.20;3.50;;;18.40;50.60;;;;;;5038042;28;20032;-60
2022/04/28 10:15:57;;;;;;;6.47;3.80;;;18.40;50.40;;;;;;5027889;28;20037;-61
2022/04/28 10:18:27;;;;;;;3.00;2.70;;;18.40;50.10;;;;;;5023301;28;20035;-61
2022/04/28 10:21:00;;;;;;;3.13;2.40;;;18.40;49.80;;;;;;5019721;28;20071;-62
2022/04/28 10:34:33;;;;;;;2.00;1.70;;;18.40;47.70;;;;;;5038105;28;20118;-60
2022/04/28 10:37:03;;;;;;;5.18;2.83;;;18.40;47.90;;;;;;5027679;28;20033;-61
2022/04/28 10:39:38;;;;;;;3.05;2.75;;;18.40;47.90;;;;;;5015213;28;20120;-61
2022/04/28 10:42:29;;;;;;;3.22;2.22;;;18.40;49.00;;;;;;5042265;28;20683;-60
2022/04/28 10:44:57;;;;;;;1.55;1.45;;;18.40;49.60;;;;;;5032376;28;20029;-61
2022/04/28 10:47:36;;;;;;;1.60;1.50;;;18.40;48.60;;;;;;5018026;28;20045;-60
2022/04/28 10:50:20;;;;;;;1.80;1.70;;;18.40;48.00;;;;;;5038902;28;20046;-61
2022/04/28 10:53:11;;;;;;;1.77;1.40;;;18.50;48.10;;;;;;5046505;28;20039;-60
2022/04/28 10:55:41;;;;;;;1.50;1.40;;;18.50;47.80;;;;;;5034212;28;20538;-60
2022/04/28 10:58:20;;;;;;;1.30;1.30;;;18.60;47.90;;;;;;5044687;28;20135;-60
2022/04/28 11:01:06;;;;;;;1.60;1.38;;;18.60;47.10;;;;;;5026372;28;20082;-60
2022/04/28 11:03:47;;;;;;;1.88;1.60;;;18.70;47.10;;;;;;5029243;28;20056;-61
2022/04/28 11:06:16;;;;;;;1.50;1.40;;;18.60;46.80;;;;;;5025651;28;20392;-60
2022/04/28 11:08:49;;;;;;;1.88;1.65;;;18.70;46.90;;;;;;5031310;28;20086;-61
2022/04/28 11:11:16;;;;;;;1.27;1.20;;;18.70;46.80;;;;;;5033531;28;20143;-62
2022/04/28 11:13:46;;;;;;;1.60;1.50;;;18.80;46.70;;;;;;5033783;28;20039;-62
2022/04/28 11:16:13;;;;;;;1.50;1.40;;;18.80;46.30;;;;;;5036887;28;20926;-61
2022/04/28 11:18:39;;;;;;;1.83;1.60;;;18.90;46.40;;;;;;5009753;28;20029;-62
2022/04/28 11:21:06;;;;;;;1.83;1.73;;;19.00;46.50;;;;;;5028297;28;20032;-60
2022/04/28 11:23:36;;;;;;;1.50;1.40;;;19.10;46.40;;;;;;5041487;28;20071;-61
2022/04/28 11:26:04;;;;;;;1.63;1.52;;;19.10;46.10;;;;;;5033653;28;20040;-62
2022/04/28 11:28:31;;;;;;;2.10;1.90;;;19.10;45.90;;;;;;5029110;28;20072;-62
2022/04/28 11:30:58;;;;;;;2.28;2.03;;;19.10;45.80;;;;;;5034509;28;20047;-61
2022/04/28 11:33:25;;;;;;;2.33;1.92;;;19.20;46.00;;;;;;5031414;28;20044;-60
2022/04/28 11:35:51;;;;;;;2.72;2.08;;;19.30;46.20;;;;;;5029825;28;20086;-59
2022/04/28 11:38:27;;;;;;;1.75;1.65;;;19.30;46.50;;;;;;5032270;28;20036;-60
2022/04/28 11:41:03;;;;;;;1.50;1.40;;;19.30;46.10;;;;;;5013927;28;20112;-62
2022/04/28 11:43:31;;;;;;;1.88;1.70;;;19.30;45.70;;;;;;5019597;28;20040;-61
2022/04/28 11:46:01;;;;;;;1.70;1.60;;;19.40;45.60;;;;;;5024273;28;20206;-62
2022/04/28 11:48:28;;;;;;;2.08;1.88;;;19.40;45.70;;;;;;5025403;28;20031;-62
2022/04/28 11:51:00;;;;;;;1.85;1.75;;;19.40;46.10;;;;;;5032018;28;20060;-60
2022/04/28 11:53:26;;;;;;;2.17;1.90;;;19.40;46.40;;;;;;5030750;28;20043;-60
2022/04/28 11:55:52;;;;;;;1.73;1.63;;;19.40;46.10;;;;;;5026549;28;20036;-61
2022/04/28 11:58:17;;;;;;;1.88;1.77;;;19.40;46.10;;;;;;5037353;28;20033;-62
2022/04/28 12:00:45;;;;;;;1.90;1.67;;;19.40;46.50;;;;;;5025202;28;20058;-61
2022/04/28 12:03:25;;;;;;;3.00;1.70;;;19.50;46.90;;;;;;5023084;28;20028;-60
2022/04/28 12:05:53;;;;;;;1.98;1.83;;;19.40;45.80;;;;;;5036436;28;20709;-63
2022/04/28 12:08:25;;;;;;;2.45;2.00;;;19.40;45.80;;;;;;5013232;28;20043;-63
2022/04/28 12:19:19;;;;;;;1.98;1.85;;;19.30;46.00;;;;;;5038830;28;21767;-62
2022/04/28 12:19:20;;;;;;;2.45;2.03;;;19.30;46.00;;;;;;5031033;28;20036;-63
2022/04/28 12:21:47;;;;;;;1.92;1.70;;;19.30;45.90;;;;;;5030161;28;20431;-62
2022/04/28 12:24:18;;;;;;;2.08;1.92;;;19.20;46.00;;;;;;5014226;28;20038;-62
2022/04/28 12:26:45;;;;;;;;;;;19.20;45.90;;;;;;5040601;28;20020;-63
2022/04/28 12:29:13;;;;;;;2.75;2.30;;;19.20;46.10;;;;;;5036710;28;19943;-62
2022/04/28 12:31:40;;;;;;;4.15;3.35;;;19.10;46.00;;;;;;5032195;28;20079;-61
2022/04/28 12:34:25;;;;;;;7.40;4.70;;;19.10;45.90;;;;;;5032386;28;20376;-61
2022/04/28 12:36:59;;;;;;;4.25;2.55;;;19.10;45.70;;;;;;5032318;28;20048;-62
2022/04/28 12:39:28;;;;;;;2.45;2.03;;;19.10;45.70;;;;;;5035229;28;20024;-62
2022/04/28 12:41:54;;;;;;;1.90;1.80;;;19.10;45.80;;;;;;5028222;28;20079;-62
2022/04/28 12:44:22;;;;;;;3.00;2.20;;;19.00;45.60;;;;;;5034884;28;20492;-63
2022/04/28 12:46:49;;;;;;;1.85;1.75;;;19.00;45.60;;;;;;5038287;28;21722;-61
2022/04/28 12:49:19;;;;;;;2.13;1.92;;;19.10;45.80;;;;;;5041031;28;20124;-62
2022/04/28 12:51:46;;;;;;;2.20;2.00;;;19.10;45.70;;;;;;5039068;28;20035;-63
2022/04/28 12:54:22;;;;;;;2.40;1.88;;;19.10;45.90;;;;;;5036252;28;20490;-63
2022/04/28 12:56:57;;;;;;;2.65;1.90;;;19.10;45.80;;;;;;5034401;28;20028;-61
2022/04/28 12:59:27;;;;;;;1.85;1.75;;;19.00;45.70;;;;;;5033453;28;20409;-60
2022/04/28 13:01:54;;;;;;;2.50;2.30;;;19.00;45.70;;;;;;5033701;28;20037;-61
2022/04/28 13:04:24;;;;;;;2.08;1.98;;;19.00;45.60;;;;;;5033909;28;20063;-61
2022/04/28 13:06:51;;;;;;;2.80;2.00;;;19.00;45.70;;;;;;5036596;28;20067;-61
2022/04/28 13:09:18;;;;;;;2.08;1.80;;;19.00;45.80;;;;;;5036347;28;20049;-63
2022/04/28 13:11:45;;;;;;;1.70;1.60;;;18.90;45.70;;;;;;5033599;28;20028;-62
2022/04/28 13:14:13;;;;;;;2.05;1.77;;;18.90;46.00;;;;;;5030725;28;20025;-62
2022/04/28 13:16:40;;;;;;;2.10;1.90;;;18.90;46.10;;;;;;5041767;28;20040;-62
2022/04/28 13:19:06;;;;;;;1.63;1.52;;;18.90;46.20;;;;;;5042488;28;20113;-60
2022/04/28 13:21:39;;;;;;;1.48;1.38;;;18.90;46.40;;;;;;5032567;28;20145;-59
2022/04/28 13:24:07;;;;;;;2.28;2.08;;;18.80;46.60;;;;;;5041596;28;20017;-61
2022/04/28 13:26:32;;;;;;;2.55;1.80;;;18.80;46.90;;;;;;5038176;28;20048;-59
2022/04/28 13:28:59;;;;;;;2.40;2.20;;;18.80;47.30;;;;;;5043934;28;20783;-63
2022/04/28 13:31:25;;;;;;;1.95;1.80;;;18.80;47.80;;;;;;5027346;28;20033;-61